sensor_id;sensor_type;location;lat;lon;timestamp;temperature;humidity
18575;DHT22;9417;16.484;102.872;2023-02-17T00:01:35;19.70;77.90
18575;DHT22;9417;16.484;102.872;2023-02-17T00:03:42;19.60;78.10
18575;DHT22;9417;16.484;102.872;2023-02-17T00:05:52;19.60;78.00
18575;DHT22;9417;16.484;102.872;2023-02-17T00:07:59;19.60;77.40
18575;DHT22;9417;16.484;102.872;2023-02-17T00:10:09;19.60;78.10
18575;DHT22;9417;16.484;102.872;2023-02-17T00:12:16;19.60;77.40
18575;DHT22;9417;16.484;102.872;2023-02-17T00:14:23;19.60;77.20
18575;DHT22;9417;16.484;102.872;2023-02-17T00:16:30;19.60;77.20
18575;DHT22;9417;16.484;102.872;2023-02-17T00:18:38;19.60;77.00
18575;DHT22;9417;16.484;102.872;2023-02-17T00:20:45;19.70;77.50
18575;DHT22;9417;16.484;102.872;2023-02-17T00:22:52;19.70;77.10
18575;DHT22;9417;16.484;102.872;2023-02-17T00:24:59;19.70;77.00
18575;DHT22;9417;16.484;102.872;2023-02-17T00:27:08;19.80;77.00
18575;DHT22;9417;16.484;102.872;2023-02-17T00:29:16;19.80;77.20
18575;DHT22;9417;16.484;102.872;2023-02-17T00:31:23;19.80;77.20
18575;DHT22;9417;16.484;102.872;2023-02-17T00:33:30;19.90;77.60
18575;DHT22;9417;16.484;102.872;2023-02-17T00:35:39;20.00;78.00
18575;DHT22;9417;16.484;102.872;2023-02-17T00:37:47;20.00;77.00
18575;DHT22;9417;16.484;102.872;2023-02-17T00:39:54;20.00;77.30
18575;DHT22;9417;16.484;102.872;2023-02-17T00:42:01;20.10;76.80
18575;DHT22;9417;16.484;102.872;2023-02-17T00:44:15;20.10;76.80
18575;DHT22;9417;16.484;102.872;2023-02-17T00:46:23;20.20;76.40
18575;DHT22;9417;16.484;102.872;2023-02-17T00:48:31;20.20;75.60
18575;DHT22;9417;16.484;102.872;2023-02-17T00:50:38;20.30;75.40
18575;DHT22;9417;16.484;102.872;2023-02-17T00:52:45;20.30;75.80
18575;DHT22;9417;16.484;102.872;2023-02-17T00:54:52;20.40;75.80
18575;DHT22;9417;16.484;102.872;2023-02-17T00:56:59;20.50;74.90
18575;DHT22;9417;16.484;102.872;2023-02-17T00:59:09;20.60;74.50
18575;DHT22;9417;16.484;102.872;2023-02-17T01:01:16;20.60;74.20
18575;DHT22;9417;16.484;102.872;2023-02-17T01:03:23;20.70;73.10
18575;DHT22;9417;16.484;102.872;2023-02-17T01:05:31;20.70;74.00
18575;DHT22;9417;16.484;102.872;2023-02-17T01:07:38;20.80;73.90
18575;DHT22;9417;16.484;102.872;2023-02-17T01:09:45;20.80;73.00
18575;DHT22;9417;16.484;102.872;2023-02-17T01:11:53;20.80;71.50
18575;DHT22;9417;16.484;102.872;2023-02-17T01:14:01;20.90;72.00
18575;DHT22;9417;16.484;102.872;2023-02-17T01:16:18;20.90;71.70
18575;DHT22;9417;16.484;102.872;2023-02-17T01:18:25;20.90;71.00
18575;DHT22;9417;16.484;102.872;2023-02-17T01:20:34;21.00;70.40
18575;DHT22;9417;16.484;102.872;2023-02-17T01:22:41;21.10;70.10
18575;DHT22;9417;16.484;102.872;2023-02-17T01:24:49;21.10;71.10
18575;DHT22;9417;16.484;102.872;2023-02-17T01:26:56;21.20;71.60
18575;DHT22;9417;16.484;102.872;2023-02-17T01:29:04;21.30;70.50
18575;DHT22;9417;16.484;102.872;2023-02-17T01:31:12;21.40;69.40
18575;DHT22;9417;16.484;102.872;2023-02-17T01:33:20;21.40;69.20
18575;DHT22;9417;16.484;102.872;2023-02-17T01:35:28;21.40;68.90
18575;DHT22;9417;16.484;102.872;2023-02-17T01:37:35;21.50;70.20
18575;DHT22;9417;16.484;102.872;2023-02-17T01:39:42;21.50;69.60
18575;DHT22;9417;16.484;102.872;2023-02-17T01:41:49;21.60;69.10
18575;DHT22;9417;16.484;102.872;2023-02-17T01:44:11;21.50;68.20
18575;DHT22;9417;16.484;102.872;2023-02-17T01:46:19;21.50;68.30
18575;DHT22;9417;16.484;102.872;2023-02-17T01:48:29;21.60;68.90
18575;DHT22;9417;16.484;102.872;2023-02-17T01:50:41;21.60;68.60
18575;DHT22;9417;16.484;102.872;2023-02-17T01:52:49;21.60;69.20
18575;DHT22;9417;16.484;102.872;2023-02-17T01:55:02;21.70;68.60
18575;DHT22;9417;16.484;102.872;2023-02-17T01:57:11;21.70;68.10
18575;DHT22;9417;16.484;102.872;2023-02-17T01:59:20;21.70;67.50
18575;DHT22;9417;16.484;102.872;2023-02-17T02:01:28;21.70;69.10
18575;DHT22;9417;16.484;102.872;2023-02-17T02:03:38;21.80;69.40
18575;DHT22;9417;16.484;102.872;2023-02-17T02:05:45;21.90;68.00
18575;DHT22;9417;16.484;102.872;2023-02-17T02:07:53;21.90;67.70
18575;DHT22;9417;16.484;102.872;2023-02-17T02:10:00;21.90;67.40
18575;DHT22;9417;16.484;102.872;2023-02-17T02:12:18;22.00;67.20
18575;DHT22;9417;16.484;102.872;2023-02-17T02:14:26;22.10;66.40
18575;DHT22;9417;16.484;102.872;2023-02-17T02:16:41;22.10;67.00
18575;DHT22;9417;16.484;102.872;2023-02-17T02:18:55;22.10;67.20
18575;DHT22;9417;16.484;102.872;2023-02-17T02:21:35;22.10;66.90
18575;DHT22;9417;16.484;102.872;2023-02-17T02:24:11;22.30;67.50
18575;DHT22;9417;16.484;102.872;2023-02-17T02:29:14;22.50;67.20
18575;DHT22;9417;16.484;102.872;2023-02-17T02:31:33;22.60;66.90
18575;DHT22;9417;16.484;102.872;2023-02-17T02:33:52;22.60;66.30
18575;DHT22;9417;16.484;102.872;2023-02-17T02:36:07;22.70;66.20
18575;DHT22;9417;16.484;102.872;2023-02-17T02:38:17;22.70;65.60
18575;DHT22;9417;16.484;102.872;2023-02-17T02:40:29;22.80;66.10
18575;DHT22;9417;16.484;102.872;2023-02-17T02:42:39;22.90;66.10
18575;DHT22;9417;16.484;102.872;2023-02-17T02:44:48;23.10;66.20
18575;DHT22;9417;16.484;102.872;2023-02-17T02:46:57;23.20;66.30
18575;DHT22;9417;16.484;102.872;2023-02-17T02:49:07;23.20;65.30
18575;DHT22;9417;16.484;102.872;2023-02-17T02:51:23;23.30;64.50
18575;DHT22;9417;16.484;102.872;2023-02-17T02:53:51;23.20;64.80
18575;DHT22;9417;16.484;102.872;2023-02-17T02:56:07;23.30;64.40
18575;DHT22;9417;16.484;102.872;2023-02-17T02:58:20;23.20;64.00
18575;DHT22;9417;16.484;102.872;2023-02-17T03:00:35;23.10;64.70
18575;DHT22;9417;16.484;102.872;2023-02-17T03:02:48;23.20;65.70
18575;DHT22;9417;16.484;102.872;2023-02-17T03:05:05;23.30;64.60
18575;DHT22;9417;16.484;102.872;2023-02-17T03:07:18;23.40;65.00
18575;DHT22;9417;16.484;102.872;2023-02-17T03:09:27;23.40;63.70
18575;DHT22;9417;16.484;102.872;2023-02-17T03:11:34;23.50;64.50
18575;DHT22;9417;16.484;102.872;2023-02-17T03:13:42;23.70;64.40
18575;DHT22;9417;16.484;102.872;2023-02-17T03:15:50;24.00;63.40
18575;DHT22;9417;16.484;102.872;2023-02-17T03:17:57;23.90;62.00
18575;DHT22;9417;16.484;102.872;2023-02-17T03:20:07;23.80;62.60
18575;DHT22;9417;16.484;102.872;2023-02-17T03:22:19;23.80;63.40
18575;DHT22;9417;16.484;102.872;2023-02-17T03:24:27;23.90;63.30
18575;DHT22;9417;16.484;102.872;2023-02-17T03:26:34;23.90;62.40
18575;DHT22;9417;16.484;102.872;2023-02-17T03:28:42;24.00;62.70
18575;DHT22;9417;16.484;102.872;2023-02-17T03:30:49;24.10;62.90
18575;DHT22;9417;16.484;102.872;2023-02-17T03:32:57;24.20;62.00
18575;DHT22;9417;16.484;102.872;2023-02-17T03:35:06;24.20;62.50
18575;DHT22;9417;16.484;102.872;2023-02-17T03:37:13;24.10;61.20
18575;DHT22;9417;16.484;102.872;2023-02-17T03:39:21;24.10;61.40
18575;DHT22;9417;16.484;102.872;2023-02-17T03:41:28;24.20;61.20
18575;DHT22;9417;16.484;102.872;2023-02-17T03:43:35;24.20;60.10
18575;DHT22;9417;16.484;102.872;2023-02-17T03:45:42;24.10;61.00
18575;DHT22;9417;16.484;102.872;2023-02-17T03:47:49;24.20;61.90
18575;DHT22;9417;16.484;102.872;2023-02-17T03:49:57;24.10;61.30
18575;DHT22;9417;16.484;102.872;2023-02-17T03:52:06;24.10;61.00
18575;DHT22;9417;16.484;102.872;2023-02-17T03:54:13;24.20;63.00
18575;DHT22;9417;16.484;102.872;2023-02-17T03:56:20;24.30;60.60
18575;DHT22;9417;16.484;102.872;2023-02-17T03:58:27;24.40;60.80
18575;DHT22;9417;16.484;102.872;2023-02-17T04:00:34;24.50;59.80
18575;DHT22;9417;16.484;102.872;2023-02-17T04:02:41;24.50;60.60
18575;DHT22;9417;16.484;102.872;2023-02-17T04:04:48;24.60;58.90
18575;DHT22;9417;16.484;102.872;2023-02-17T04:06:56;24.70;61.60
18575;DHT22;9417;16.484;102.872;2023-02-17T04:09:04;24.70;59.40
18575;DHT22;9417;16.484;102.872;2023-02-17T04:11:12;24.70;61.00
18575;DHT22;9417;16.484;102.872;2023-02-17T04:13:19;24.70;60.30
18575;DHT22;9417;16.484;102.872;2023-02-17T04:15:26;24.70;59.40
18575;DHT22;9417;16.484;102.872;2023-02-17T04:17:34;24.80;59.40
18575;DHT22;9417;16.484;102.872;2023-02-17T04:19:41;24.90;59.10
18575;DHT22;9417;16.484;102.872;2023-02-17T04:21:48;25.00;58.50
18575;DHT22;9417;16.484;102.872;2023-02-17T04:23:55;25.10;58.50
18575;DHT22;9417;16.484;102.872;2023-02-17T04:26:05;25.20;58.40
18575;DHT22;9417;16.484;102.872;2023-02-17T04:28:13;25.30;58.70
18575;DHT22;9417;16.484;102.872;2023-02-17T04:30:20;25.30;58.30
18575;DHT22;9417;16.484;102.872;2023-02-17T04:32:28;25.20;58.20
18575;DHT22;9417;16.484;102.872;2023-02-17T04:34:35;25.20;59.00
18575;DHT22;9417;16.484;102.872;2023-02-17T04:36:42;25.20;58.40
18575;DHT22;9417;16.484;102.872;2023-02-17T04:38:49;25.20;58.80
18575;DHT22;9417;16.484;102.872;2023-02-17T04:40:57;25.20;58.20
18575;DHT22;9417;16.484;102.872;2023-02-17T04:43:07;25.30;58.00
18575;DHT22;9417;16.484;102.872;2023-02-17T04:45:14;25.20;58.00
18575;DHT22;9417;16.484;102.872;2023-02-17T04:47:21;25.30;58.70
18575;DHT22;9417;16.484;102.872;2023-02-17T04:49:29;25.30;58.70
18575;DHT22;9417;16.484;102.872;2023-02-17T04:51:36;25.30;58.80
18575;DHT22;9417;16.484;102.872;2023-02-17T04:53:43;25.30;58.30
18575;DHT22;9417;16.484;102.872;2023-02-17T04:55:52;25.30;58.50
18575;DHT22;9417;16.484;102.872;2023-02-17T04:57:59;25.30;57.60
18575;DHT22;9417;16.484;102.872;2023-02-17T05:00:10;25.30;57.40
18575;DHT22;9417;16.484;102.872;2023-02-17T05:02:17;25.40;57.30
18575;DHT22;9417;16.484;102.872;2023-02-17T05:04:24;25.50;58.30
18575;DHT22;9417;16.484;102.872;2023-02-17T05:06:31;25.50;57.10
18575;DHT22;9417;16.484;102.872;2023-02-17T05:08:38;25.50;57.10
18575;DHT22;9417;16.484;102.872;2023-02-17T05:10:45;25.60;57.30
18575;DHT22;9417;16.484;102.872;2023-02-17T05:12:53;25.70;58.30
18575;DHT22;9417;16.484;102.872;2023-02-17T05:15:01;25.70;56.60
18575;DHT22;9417;16.484;102.872;2023-02-17T05:17:09;25.60;57.30
18575;DHT22;9417;16.484;102.872;2023-02-17T05:19:16;25.50;57.20
18575;DHT22;9417;16.484;102.872;2023-02-17T05:21:24;25.50;57.80
18575;DHT22;9417;16.484;102.872;2023-02-17T05:23:31;25.50;58.20
18575;DHT22;9417;16.484;102.872;2023-02-17T05:25:38;25.60;57.30
18575;DHT22;9417;16.484;102.872;2023-02-17T05:27:45;25.70;57.20
18575;DHT22;9417;16.484;102.872;2023-02-17T05:29:52;25.60;57.20
18575;DHT22;9417;16.484;102.872;2023-02-17T05:31:59;25.70;56.50
18575;DHT22;9417;16.484;102.872;2023-02-17T05:34:08;25.60;56.80
18575;DHT22;9417;16.484;102.872;2023-02-17T05:36:16;25.60;56.00
18575;DHT22;9417;16.484;102.872;2023-02-17T05:38:23;25.60;57.90
18575;DHT22;9417;16.484;102.872;2023-02-17T05:40:30;25.60;57.10
18575;DHT22;9417;16.484;102.872;2023-02-17T05:42:37;25.70;57.00
18575;DHT22;9417;16.484;102.872;2023-02-17T05:44:44;25.80;56.80
18575;DHT22;9417;16.484;102.872;2023-02-17T05:46:52;25.80;56.80
18575;DHT22;9417;16.484;102.872;2023-02-17T05:48:58;25.80;56.30
18575;DHT22;9417;16.484;102.872;2023-02-17T05:51:08;25.80;56.60
18575;DHT22;9417;16.484;102.872;2023-02-17T05:53:17;25.80;56.30
18575;DHT22;9417;16.484;102.872;2023-02-17T05:55:24;25.90;57.30
18575;DHT22;9417;16.484;102.872;2023-02-17T05:57:31;26.00;57.30
18575;DHT22;9417;16.484;102.872;2023-02-17T05:59:39;26.00;56.50
18575;DHT22;9417;16.484;102.872;2023-02-17T06:01:46;26.10;57.10
18575;DHT22;9417;16.484;102.872;2023-02-17T06:03:53;26.10;56.70
18575;DHT22;9417;16.484;102.872;2023-02-17T06:06:00;26.20;56.70
18575;DHT22;9417;16.484;102.872;2023-02-17T06:08:09;26.20;56.30
18575;DHT22;9417;16.484;102.872;2023-02-17T06:10:16;26.30;56.60
18575;DHT22;9417;16.484;102.872;2023-02-17T06:12:24;26.40;55.80
18575;DHT22;9417;16.484;102.872;2023-02-17T06:14:31;26.50;55.80
18575;DHT22;9417;16.484;102.872;2023-02-17T06:16:38;26.50;55.40
18575;DHT22;9417;16.484;102.872;2023-02-17T06:18:45;26.40;56.60
18575;DHT22;9417;16.484;102.872;2023-02-17T06:20:54;26.30;55.50
18575;DHT22;9417;16.484;102.872;2023-02-17T06:23:02;26.30;56.30
18575;DHT22;9417;16.484;102.872;2023-02-17T06:25:10;26.30;56.50
18575;DHT22;9417;16.484;102.872;2023-02-17T06:27:17;26.40;56.40
18575;DHT22;9417;16.484;102.872;2023-02-17T06:29:25;26.50;55.70
18575;DHT22;9417;16.484;102.872;2023-02-17T06:31:32;26.60;56.10
18575;DHT22;9417;16.484;102.872;2023-02-17T06:33:40;26.60;55.00
18575;DHT22;9417;16.484;102.872;2023-02-17T06:35:48;26.50;56.10
18575;DHT22;9417;16.484;102.872;2023-02-17T06:37:55;26.50;55.20
18575;DHT22;9417;16.484;102.872;2023-02-17T06:40:03;26.60;55.00
18575;DHT22;9417;16.484;102.872;2023-02-17T06:42:11;26.60;55.80
18575;DHT22;9417;16.484;102.872;2023-02-17T06:44:18;26.50;55.00
18575;DHT22;9417;16.484;102.872;2023-02-17T06:46:26;26.60;54.80
18575;DHT22;9417;16.484;102.872;2023-02-17T06:48:33;26.70;55.30
18575;DHT22;9417;16.484;102.872;2023-02-17T06:50:40;26.70;54.00
18575;DHT22;9417;16.484;102.872;2023-02-17T06:52:47;26.70;55.00
18575;DHT22;9417;16.484;102.872;2023-02-17T06:54:54;26.70;55.00
18575;DHT22;9417;16.484;102.872;2023-02-17T06:57:01;26.70;56.00
18575;DHT22;9417;16.484;102.872;2023-02-17T06:59:10;26.70;54.60
18575;DHT22;9417;16.484;102.872;2023-02-17T07:01:18;26.70;53.80
18575;DHT22;9417;16.484;102.872;2023-02-17T07:03:25;26.70;54.20
18575;DHT22;9417;16.484;102.872;2023-02-17T07:05:34;26.60;54.50
18575;DHT22;9417;16.484;102.872;2023-02-17T07:07:41;26.60;54.70
18575;DHT22;9417;16.484;102.872;2023-02-17T07:09:49;26.50;55.60
18575;DHT22;9417;16.484;102.872;2023-02-17T07:11:56;26.60;55.50
18575;DHT22;9417;16.484;102.872;2023-02-17T07:14:04;26.70;55.20
18575;DHT22;9417;16.484;102.872;2023-02-17T07:16:14;26.80;54.40
18575;DHT22;9417;16.484;102.872;2023-02-17T07:18:21;27.00;52.60
18575;DHT22;9417;16.484;102.872;2023-02-17T07:20:28;27.00;53.30
18575;DHT22;9417;16.484;102.872;2023-02-17T07:22:36;26.90;52.50
18575;DHT22;9417;16.484;102.872;2023-02-17T07:24:43;27.00;54.00
18575;DHT22;9417;16.484;102.872;2023-02-17T07:26:50;27.00;54.30
18575;DHT22;9417;16.484;102.872;2023-02-17T07:28:59;27.10;55.80
18575;DHT22;9417;16.484;102.872;2023-02-17T07:31:07;27.00;53.60
18575;DHT22;9417;16.484;102.872;2023-02-17T07:33:16;27.00;53.90
18575;DHT22;9417;16.484;102.872;2023-02-17T07:35:23;27.00;55.70
18575;DHT22;9417;16.484;102.872;2023-02-17T07:37:30;27.00;53.30
18575;DHT22;9417;16.484;102.872;2023-02-17T07:39:37;27.00;53.10
18575;DHT22;9417;16.484;102.872;2023-02-17T07:41:44;27.00;54.00
18575;DHT22;9417;16.484;102.872;2023-02-17T07:43:54;26.90;52.50
18575;DHT22;9417;16.484;102.872;2023-02-17T07:46:02;26.90;53.60
18575;DHT22;9417;16.484;102.872;2023-02-17T07:48:10;26.90;53.60
18575;DHT22;9417;16.484;102.872;2023-02-17T07:50:19;26.90;53.70
18575;DHT22;9417;16.484;102.872;2023-02-17T07:52:26;26.90;53.30
18575;DHT22;9417;16.484;102.872;2023-02-17T07:54:37;26.90;54.20
18575;DHT22;9417;16.484;102.872;2023-02-17T07:56:44;26.90;52.40
18575;DHT22;9417;16.484;102.872;2023-02-17T07:58:51;27.00;52.50
18575;DHT22;9417;16.484;102.872;2023-02-17T08:01:03;26.90;51.90
18575;DHT22;9417;16.484;102.872;2023-02-17T08:03:11;26.90;52.40
18575;DHT22;9417;16.484;102.872;2023-02-17T08:05:19;27.00;52.00
18575;DHT22;9417;16.484;102.872;2023-02-17T08:07:26;27.00;51.20
18575;DHT22;9417;16.484;102.872;2023-02-17T08:09:33;27.00;52.50
18575;DHT22;9417;16.484;102.872;2023-02-17T08:11:57;27.00;52.20
18575;DHT22;9417;16.484;102.872;2023-02-17T08:14:22;27.10;52.10
18575;DHT22;9417;16.484;102.872;2023-02-17T08:16:30;27.10;52.40
18575;DHT22;9417;16.484;102.872;2023-02-17T08:18:37;27.10;52.10
18575;DHT22;9417;16.484;102.872;2023-02-17T08:20:45;27.10;52.40
18575;DHT22;9417;16.484;102.872;2023-02-17T08:22:53;27.00;51.00
18575;DHT22;9417;16.484;102.872;2023-02-17T08:25:01;27.00;51.40
18575;DHT22;9417;16.484;102.872;2023-02-17T08:27:09;27.00;53.00
18575;DHT22;9417;16.484;102.872;2023-02-17T08:29:17;27.00;50.30
18575;DHT22;9417;16.484;102.872;2023-02-17T08:31:26;26.90;50.30
18575;DHT22;9417;16.484;102.872;2023-02-17T08:33:34;26.90;51.00
18575;DHT22;9417;16.484;102.872;2023-02-17T08:35:41;26.90;52.70
18575;DHT22;9417;16.484;102.872;2023-02-17T08:37:50;26.90;51.60
18575;DHT22;9417;16.484;102.872;2023-02-17T08:39:57;26.90;51.20
18575;DHT22;9417;16.484;102.872;2023-02-17T08:42:05;26.90;51.70
18575;DHT22;9417;16.484;102.872;2023-02-17T08:44:13;26.90;51.80
18575;DHT22;9417;16.484;102.872;2023-02-17T08:46:21;26.90;51.10
18575;DHT22;9417;16.484;102.872;2023-02-17T08:48:29;26.90;50.20
18575;DHT22;9417;16.484;102.872;2023-02-17T08:50:39;26.90;51.60
18575;DHT22;9417;16.484;102.872;2023-02-17T08:52:46;27.00;50.30
18575;DHT22;9417;16.484;102.872;2023-02-17T08:54:55;27.00;51.80
18575;DHT22;9417;16.484;102.872;2023-02-17T08:57:02;27.00;50.60
18575;DHT22;9417;16.484;102.872;2023-02-17T08:59:10;27.00;50.20
18575;DHT22;9417;16.484;102.872;2023-02-17T09:01:18;27.00;51.30
18575;DHT22;9417;16.484;102.872;2023-02-17T09:03:26;27.10;52.00
18575;DHT22;9417;16.484;102.872;2023-02-17T09:05:34;27.10;51.20
18575;DHT22;9417;16.484;102.872;2023-02-17T09:07:41;27.00;51.70
18575;DHT22;9417;16.484;102.872;2023-02-17T09:09:48;27.00;49.40
18575;DHT22;9417;16.484;102.872;2023-02-17T09:11:58;27.00;49.20
18575;DHT22;9417;16.484;102.872;2023-02-17T09:14:05;26.90;51.20
18575;DHT22;9417;16.484;102.872;2023-02-17T09:16:13;27.00;51.90
18575;DHT22;9417;16.484;102.872;2023-02-17T09:18:23;26.90;52.30
18575;DHT22;9417;16.484;102.872;2023-02-17T09:20:30;26.90;52.40
18575;DHT22;9417;16.484;102.872;2023-02-17T09:22:37;26.90;53.40
18575;DHT22;9417;16.484;102.872;2023-02-17T09:24:44;26.90;53.30
18575;DHT22;9417;16.484;102.872;2023-02-17T09:26:52;26.90;53.10
18575;DHT22;9417;16.484;102.872;2023-02-17T09:29:02;26.90;52.60
18575;DHT22;9417;16.484;102.872;2023-02-17T09:31:10;26.90;51.90
18575;DHT22;9417;16.484;102.872;2023-02-17T09:33:18;26.90;53.30
18575;DHT22;9417;16.484;102.872;2023-02-17T09:35:25;26.90;52.90
18575;DHT22;9417;16.484;102.872;2023-02-17T09:37:33;26.90;51.60
18575;DHT22;9417;16.484;102.872;2023-02-17T09:39:40;26.90;51.80
18575;DHT22;9417;16.484;102.872;2023-02-17T09:41:49;26.90;52.40
18575;DHT22;9417;16.484;102.872;2023-02-17T09:44:00;26.90;52.60
18575;DHT22;9417;16.484;102.872;2023-02-17T09:46:13;26.90;51.70
18575;DHT22;9417;16.484;102.872;2023-02-17T09:48:24;26.90;52.00
18575;DHT22;9417;16.484;102.872;2023-02-17T09:50:36;26.90;53.50
18575;DHT22;9417;16.484;102.872;2023-02-17T09:52:49;26.80;53.30
18575;DHT22;9417;16.484;102.872;2023-02-17T09:55:04;26.80;52.70
18575;DHT22;9417;16.484;102.872;2023-02-17T09:57:15;26.80;53.30
18575;DHT22;9417;16.484;102.872;2023-02-17T09:59:28;26.80;52.60
18575;DHT22;9417;16.484;102.872;2023-02-17T10:01:38;26.80;53.00
18575;DHT22;9417;16.484;102.872;2023-02-17T10:03:50;26.80;53.80
18575;DHT22;9417;16.484;102.872;2023-02-17T10:06:07;26.80;53.40
18575;DHT22;9417;16.484;102.872;2023-02-17T10:08:20;26.80;53.80
18575;DHT22;9417;16.484;102.872;2023-02-17T10:10:32;26.70;54.70
18575;DHT22;9417;16.484;102.872;2023-02-17T10:12:45;26.70;54.50
18575;DHT22;9417;16.484;102.872;2023-02-17T10:14:54;26.70;54.60
18575;DHT22;9417;16.484;102.872;2023-02-17T10:17:05;26.60;53.90
18575;DHT22;9417;16.484;102.872;2023-02-17T10:19:18;26.60;54.50
18575;DHT22;9417;16.484;102.872;2023-02-17T10:21:28;26.60;54.10
18575;DHT22;9417;16.484;102.872;2023-02-17T10:23:37;26.70;54.40
18575;DHT22;9417;16.484;102.872;2023-02-17T10:28:32;26.60;55.20
18575;DHT22;9417;16.484;102.872;2023-02-17T10:30:47;26.60;55.00
18575;DHT22;9417;16.484;102.872;2023-02-17T10:33:13;26.60;55.00
18575;DHT22;9417;16.484;102.872;2023-02-17T10:35:26;26.60;55.00
18575;DHT22;9417;16.484;102.872;2023-02-17T10:37:46;26.60;55.30
18575;DHT22;9417;16.484;102.872;2023-02-17T10:39:55;26.60;56.00
18575;DHT22;9417;16.484;102.872;2023-02-17T10:42:04;26.50;57.10
18575;DHT22;9417;16.484;102.872;2023-02-17T10:44:15;26.50;58.50
18575;DHT22;9417;16.484;102.872;2023-02-17T10:46:28;26.40;59.80
18575;DHT22;9417;16.484;102.872;2023-02-17T10:48:42;26.30;61.00
18575;DHT22;9417;16.484;102.872;2023-02-17T10:50:51;26.30;61.00
18575;DHT22;9417;16.484;102.872;2023-02-17T10:53:00;26.20;61.10
18575;DHT22;9417;16.484;102.872;2023-02-17T10:55:13;26.20;61.20
18575;DHT22;9417;16.484;102.872;2023-02-17T10:57:29;26.20;61.90
18575;DHT22;9417;16.484;102.872;2023-02-17T10:59:40;26.10;62.10
18575;DHT22;9417;16.484;102.872;2023-02-17T11:01:49;26.10;62.00
18575;DHT22;9417;16.484;102.872;2023-02-17T11:04:00;26.00;61.60
18575;DHT22;9417;16.484;102.872;2023-02-17T11:06:17;26.00;61.20
18575;DHT22;9417;16.484;102.872;2023-02-17T11:08:30;26.00;60.80
18575;DHT22;9417;16.484;102.872;2023-02-17T11:10:40;26.00;60.70
18575;DHT22;9417;16.484;102.872;2023-02-17T11:12:48;26.00;60.80
18575;DHT22;9417;16.484;102.872;2023-02-17T11:14:55;26.00;61.00
18575;DHT22;9417;16.484;102.872;2023-02-17T11:17:14;26.00;61.10
18575;DHT22;9417;16.484;102.872;2023-02-17T11:19:25;26.00;61.70
18575;DHT22;9417;16.484;102.872;2023-02-17T11:21:32;25.90;61.40
18575;DHT22;9417;16.484;102.872;2023-02-17T11:23:48;25.90;61.20
18575;DHT22;9417;16.484;102.872;2023-02-17T11:25:57;25.80;61.30
18575;DHT22;9417;16.484;102.872;2023-02-17T11:28:06;25.80;62.40
18575;DHT22;9417;16.484;102.872;2023-02-17T11:30:17;25.70;63.40
18575;DHT22;9417;16.484;102.872;2023-02-17T11:32:31;25.70;63.60
18575;DHT22;9417;16.484;102.872;2023-02-17T11:34:41;25.70;63.60
18575;DHT22;9417;16.484;102.872;2023-02-17T11:36:58;25.60;63.50
18575;DHT22;9417;16.484;102.872;2023-02-17T11:39:17;25.60;64.10
18575;DHT22;9417;16.484;102.872;2023-02-17T11:41:25;25.60;64.40
18575;DHT22;9417;16.484;102.872;2023-02-17T11:43:33;25.60;64.50
18575;DHT22;9417;16.484;102.872;2023-02-17T11:45:43;25.60;64.50
18575;DHT22;9417;16.484;102.872;2023-02-17T11:48:19;25.60;64.10
18575;DHT22;9417;16.484;102.872;2023-02-17T11:50:34;25.50;65.80
18575;DHT22;9417;16.484;102.872;2023-02-17T11:52:58;25.40;65.30
18575;DHT22;9417;16.484;102.872;2023-02-17T11:55:18;25.30;64.20
18575;DHT22;9417;16.484;102.872;2023-02-17T11:57:36;25.30;64.70
18575;DHT22;9417;16.484;102.872;2023-02-17T11:59:56;25.30;66.20
18575;DHT22;9417;16.484;102.872;2023-02-17T12:02:22;25.30;66.50
18575;DHT22;9417;16.484;102.872;2023-02-17T12:04:34;25.30;66.70
18575;DHT22;9417;16.484;102.872;2023-02-17T12:06:48;25.20;65.90
18575;DHT22;9417;16.484;102.872;2023-02-17T12:09:05;25.20;65.90
18575;DHT22;9417;16.484;102.872;2023-02-17T12:11:20;25.20;66.20
18575;DHT22;9417;16.484;102.872;2023-02-17T12:13:39;25.20;66.10
18575;DHT22;9417;16.484;102.872;2023-02-17T12:15:52;25.20;66.20
18575;DHT22;9417;16.484;102.872;2023-02-17T12:18:12;25.20;68.30
18575;DHT22;9417;16.484;102.872;2023-02-17T12:20:40;25.10;67.40
18575;DHT22;9417;16.484;102.872;2023-02-17T12:23:01;25.10;66.80
18575;DHT22;9417;16.484;102.872;2023-02-17T12:25:23;25.10;66.70
18575;DHT22;9417;16.484;102.872;2023-02-17T12:27:41;25.10;66.40
18575;DHT22;9417;16.484;102.872;2023-02-17T12:30:02;25.10;66.70
18575;DHT22;9417;16.484;102.872;2023-02-17T12:32:23;25.10;66.90
18575;DHT22;9417;16.484;102.872;2023-02-17T12:34:39;25.10;67.70
18575;DHT22;9417;16.484;102.872;2023-02-17T12:36:50;25.10;67.80
18575;DHT22;9417;16.484;102.872;2023-02-17T12:39:00;25.10;67.20
18575;DHT22;9417;16.484;102.872;2023-02-17T12:41:12;25.10;67.30
18575;DHT22;9417;16.484;102.872;2023-02-17T12:43:24;25.00;67.40
18575;DHT22;9417;16.484;102.872;2023-02-17T12:45:37;25.00;66.00
18575;DHT22;9417;16.484;102.872;2023-02-17T12:47:50;25.10;66.10
18575;DHT22;9417;16.484;102.872;2023-02-17T12:50:03;25.10;67.70
18575;DHT22;9417;16.484;102.872;2023-02-17T12:52:16;25.00;68.40
18575;DHT22;9417;16.484;102.872;2023-02-17T12:54:29;25.00;67.90
18575;DHT22;9417;16.484;102.872;2023-02-17T12:56:53;24.90;67.70
18575;DHT22;9417;16.484;102.872;2023-02-17T12:59:12;24.90;67.50
18575;DHT22;9417;16.484;102.872;2023-02-17T13:01:21;24.90;66.70
18575;DHT22;9417;16.484;102.872;2023-02-17T13:03:30;24.80;67.10
18575;DHT22;9417;16.484;102.872;2023-02-17T13:05:40;24.80;67.60
18575;DHT22;9417;16.484;102.872;2023-02-17T13:07:56;24.80;68.00
18575;DHT22;9417;16.484;102.872;2023-02-17T13:10:15;24.80;67.80
18575;DHT22;9417;16.484;102.872;2023-02-17T13:12:36;24.80;68.00
18575;DHT22;9417;16.484;102.872;2023-02-17T13:14:45;24.70;67.50
18575;DHT22;9417;16.484;102.872;2023-02-17T13:16:53;24.70;67.90
18575;DHT22;9417;16.484;102.872;2023-02-17T13:19:06;24.70;69.20
18575;DHT22;9417;16.484;102.872;2023-02-17T13:21:24;24.70;69.50
18575;DHT22;9417;16.484;102.872;2023-02-17T13:23:39;24.60;70.00
18575;DHT22;9417;16.484;102.872;2023-02-17T13:28:35;24.60;69.00
18575;DHT22;9417;16.484;102.872;2023-02-17T13:30:44;24.50;69.50
18575;DHT22;9417;16.484;102.872;2023-02-17T13:33:01;24.50;69.10
18575;DHT22;9417;16.484;102.872;2023-02-17T13:35:30;24.50;69.30
18575;DHT22;9417;16.484;102.872;2023-02-17T13:37:40;24.50;70.90